createdAt,value
2023-11-05T00:00:50.422Z,3.10
2023-11-05T00:03:18.956Z,2.60
2023-11-05T00:05:47.344Z,2.70
2023-11-05T00:08:15.667Z,3.63
2023-11-05T00:10:45.014Z,2.63
2023-11-05T00:13:13.476Z,2.73
2023-11-05T00:15:43.946Z,2.90
2023-11-05T00:18:12.242Z,2.40
2023-11-05T00:20:40.633Z,2.70
2023-11-05T00:23:08.956Z,2.37
2023-11-05T00:25:38.280Z,2.70
2023-11-05T00:28:06.738Z,2.53
2023-11-05T00:30:35.927Z,2.43
2023-11-05T00:33:06.091Z,2.40
2023-11-05T00:35:34.502Z,2.67
2023-11-05T00:38:04.431Z,2.20
2023-11-05T00:40:32.927Z,2.13
2023-11-05T00:43:01.593Z,2.20
2023-11-05T00:45:29.913Z,2.80
2023-11-05T00:47:58.355Z,2.03
2023-11-05T00:50:27.090Z,2.20
2023-11-05T00:52:55.395Z,2.50
2023-11-05T00:55:23.830Z,2.20
2023-11-05T00:57:53.468Z,2.47
2023-11-05T01:00:26.027Z,2.20
2023-11-05T01:02:56.397Z,2.00
2023-11-05T01:05:24.896Z,2.77
2023-11-05T01:07:55.142Z,2.70
2023-11-05T01:10:23.494Z,2.10
2023-11-05T01:12:52.941Z,2.80
2023-11-05T01:15:21.489Z,2.33
2023-11-05T01:17:50.153Z,2.43
2023-11-05T01:20:18.660Z,2.30
2023-11-05T01:22:47.011Z,2.13
2023-11-05T01:25:16.956Z,2.30
2023-11-05T01:27:45.817Z,2.50
2023-11-05T01:30:14.697Z,2.50
2023-11-05T01:32:43.070Z,2.30
2023-11-05T01:35:11.422Z,2.47
2023-11-05T01:37:40.779Z,2.53
2023-11-05T01:40:10.136Z,2.10
2023-11-05T01:42:39.937Z,2.60
2023-11-05T01:45:10.216Z,2.50
2023-11-05T01:47:38.915Z,2.20
2023-11-05T01:50:08.148Z,2.30
2023-11-05T01:52:37.551Z,2.50
2023-11-05T01:55:07.634Z,2.13
2023-11-05T01:57:36.255Z,2.17
2023-11-05T02:00:07.005Z,2.50
2023-11-05T02:02:41.586Z,2.10
2023-11-05T02:05:11.017Z,2.30
2023-11-05T02:07:39.542Z,2.20
2023-11-05T02:10:09.308Z,2.13
2023-11-05T02:12:37.944Z,2.27
2023-11-05T02:15:08.706Z,1.80
2023-11-05T02:17:37.416Z,1.97
2023-11-05T02:20:07.826Z,2.20
2023-11-05T02:22:38.478Z,2.10
2023-11-05T02:25:09.715Z,2.40
2023-11-05T02:27:38.352Z,2.03
2023-11-05T02:30:08.149Z,2.03
2023-11-05T02:32:36.546Z,2.00
2023-11-05T02:35:05.265Z,2.13
2023-11-05T02:37:33.646Z,2.30
2023-11-05T02:40:02.025Z,2.10
2023-11-05T02:42:31.864Z,2.13
2023-11-05T02:45:00.299Z,2.07
2023-11-05T02:47:28.708Z,1.50
2023-11-05T02:49:57.217Z,2.20
2023-11-05T02:52:25.581Z,1.87
2023-11-05T02:54:53.944Z,2.10
2023-11-05T02:57:22.729Z,2.10
2023-11-05T02:59:53.269Z,1.90
2023-11-05T03:02:21.743Z,1.97
2023-11-05T03:04:50.207Z,1.70
2023-11-05T03:07:18.648Z,1.80
2023-11-05T03:09:47.025Z,1.50
2023-11-05T03:12:15.414Z,1.70
2023-11-05T03:14:43.782Z,1.73
2023-11-05T03:17:13.943Z,1.63
2023-11-05T03:19:42.470Z,1.70
2023-11-05T03:22:11.529Z,1.60
2023-11-05T03:24:41.327Z,1.53
2023-11-05T03:27:10.097Z,1.90
2023-11-05T03:29:38.477Z,1.77
2023-11-05T03:32:08.049Z,1.73
2023-11-05T03:34:37.815Z,1.60
2023-11-05T03:37:06.284Z,1.87
2023-11-05T03:39:34.673Z,2.07
2023-11-05T03:42:03.120Z,1.80
2023-11-05T03:44:31.682Z,1.70
2023-11-05T03:47:00.101Z,1.57
2023-11-05T03:49:28.563Z,1.87
2023-11-05T03:51:59.505Z,2.07
2023-11-05T03:54:27.950Z,2.00
2023-11-05T03:56:58.036Z,1.70
2023-11-05T03:59:26.918Z,2.27
2023-11-05T04:01:55.333Z,1.80
2023-11-05T04:04:23.779Z,1.83
2023-11-05T04:06:52.306Z,1.80
2023-11-05T04:09:22.128Z,1.73
2023-11-05T04:11:50.624Z,2.13
2023-11-05T04:14:18.927Z,2.10
2023-11-05T04:16:47.292Z,2.17
2023-11-05T04:19:16.948Z,2.07
2023-11-05T04:21:45.365Z,2.20
2023-11-05T04:24:16.553Z,2.60
2023-11-05T04:26:46.326Z,2.13
2023-11-05T04:29:14.793Z,2.67
2023-11-05T04:31:43.174Z,2.23
2023-11-05T04:34:11.698Z,2.53
2023-11-05T04:36:42.064Z,2.03
2023-11-05T04:39:10.588Z,2.37
2023-11-05T04:41:38.941Z,2.17
2023-11-05T04:44:08.854Z,2.20
2023-11-05T04:46:41.258Z,2.67
2023-11-05T04:49:09.747Z,2.40
2023-11-05T04:51:38.221Z,2.50
2023-11-05T04:54:06.948Z,2.30
2023-11-05T04:56:35.348Z,2.30
2023-11-05T04:59:04.172Z,2.47
2023-11-05T05:01:33.921Z,2.23
2023-11-05T05:04:02.376Z,2.50
2023-11-05T05:06:30.714Z,2.27
2023-11-05T05:08:59.109Z,2.70
2023-11-05T05:11:27.487Z,2.50
2023-11-05T05:13:55.884Z,2.70
2023-11-05T05:16:24.269Z,2.30
2023-11-05T05:18:54.018Z,2.67
2023-11-05T05:21:22.413Z,2.90
2023-11-05T05:23:50.763Z,2.73
2023-11-05T05:26:20.514Z,2.50
2023-11-05T05:28:49.484Z,2.83
2023-11-05T05:31:18.011Z,2.60
2023-11-05T05:33:46.321Z,3.27
2023-11-05T05:36:16.082Z,2.80
2023-11-05T05:38:44.450Z,2.70
2023-11-05T05:41:12.754Z,3.10
2023-11-05T05:43:41.093Z,2.83
2023-11-05T05:46:10.891Z,3.00
2023-11-05T05:48:39.172Z,2.90
2023-11-05T05:51:10.523Z,3.30
2023-11-05T05:53:41.801Z,3.17
2023-11-05T05:56:11.552Z,3.20
2023-11-05T05:58:39.937Z,2.97
2023-11-05T06:01:08.896Z,3.17
2023-11-05T06:03:37.311Z,3.53
2023-11-05T06:06:06.542Z,3.43
2023-11-05T06:08:34.895Z,3.57
2023-11-05T06:11:04.866Z,3.13
2023-11-05T06:13:33.300Z,3.53
2023-11-05T06:16:01.664Z,3.70
2023-11-05T06:18:30.073Z,3.37
2023-11-05T06:20:58.440Z,3.27
2023-11-05T06:23:27.415Z,3.40
2023-11-05T06:25:55.766Z,3.30
2023-11-05T06:28:25.549Z,3.70
2023-11-05T06:30:53.899Z,3.43
2023-11-05T06:33:23.404Z,3.43
2023-11-05T06:35:51.881Z,3.13
2023-11-05T06:38:20.305Z,3.63
2023-11-05T06:40:48.744Z,3.53
2023-11-05T06:43:17.104Z,3.40
2023-11-05T06:45:46.881Z,3.43
2023-11-05T06:48:15.259Z,3.47
2023-11-05T06:50:43.587Z,3.60
2023-11-05T06:53:13.674Z,3.90
2023-11-05T06:55:42.120Z,3.97
2023-11-05T06:58:12.216Z,3.60
2023-11-05T07:00:42.791Z,3.60
2023-11-05T07:03:12.703Z,3.50
2023-11-05T07:05:42.110Z,3.37
2023-11-05T07:08:10.459Z,3.30
2023-11-05T07:10:38.859Z,3.37
2023-11-05T07:13:07.870Z,3.97
2023-11-05T07:15:40.509Z,3.70
2023-11-05T07:18:09.521Z,3.60
2023-11-05T07:20:54.198Z,3.73
2023-11-05T07:23:25.112Z,3.67
2023-11-05T07:25:53.477Z,3.60
2023-11-05T07:28:21.768Z,3.90
2023-11-05T07:30:50.115Z,3.67
2023-11-05T07:33:18.408Z,3.60
2023-11-05T07:35:48.844Z,3.90
2023-11-05T07:38:23.078Z,3.43
2023-11-05T07:40:51.616Z,3.53
2023-11-05T07:43:21.321Z,3.50
2023-11-05T07:45:49.765Z,3.73
2023-11-05T07:48:18.191Z,3.23
2023-11-05T07:50:47.448Z,3.80
2023-11-05T07:53:17.795Z,3.90
2023-11-05T07:55:49.305Z,3.70
2023-11-05T07:58:17.712Z,4.10
2023-11-05T08:00:47.670Z,3.53
2023-11-05T08:03:16.287Z,4.00
2023-11-05T08:05:44.814Z,3.57
2023-11-05T08:08:13.400Z,3.30
2023-11-05T08:10:41.763Z,3.57
2023-11-05T08:13:11.564Z,4.00
2023-11-05T08:15:39.889Z,4.10
2023-11-05T08:18:08.511Z,3.47
2023-11-05T08:20:36.942Z,3.80
2023-11-05T08:23:05.960Z,3.47
2023-11-05T08:25:34.275Z,3.37
2023-11-05T08:28:12.502Z,3.30
2023-11-05T08:30:49.526Z,3.63
2023-11-05T08:33:18.690Z,3.90
2023-11-05T08:35:48.145Z,3.20
2023-11-05T08:38:16.505Z,3.43
2023-11-05T08:40:46.451Z,3.40
2023-11-05T08:43:15.037Z,2.97
2023-11-05T08:45:48.660Z,3.10
2023-11-05T08:48:20.828Z,3.27
2023-11-05T08:50:49.349Z,2.80
2023-11-05T08:53:18.965Z,2.77
2023-11-05T08:55:48.723Z,3.00
2023-11-05T08:58:18.173Z,2.70
2023-11-05T09:00:46.548Z,3.20
2023-11-05T09:03:15.056Z,2.40
2023-11-05T09:05:44.887Z,2.80
2023-11-05T09:08:13.305Z,2.73
2023-11-05T09:10:41.719Z,2.67
2023-11-05T09:13:10.156Z,2.30
2023-11-05T09:15:38.582Z,2.40
2023-11-05T09:18:07.428Z,2.30
2023-11-05T09:20:35.860Z,2.33
2023-11-05T09:23:05.681Z,2.20
2023-11-05T09:25:34.177Z,2.57
2023-11-05T09:28:03.234Z,2.60
2023-11-05T09:30:31.545Z,2.20
2023-11-05T09:32:59.950Z,2.70
2023-11-05T09:35:28.547Z,2.43
2023-11-05T09:37:57.345Z,2.30
2023-11-05T09:40:27.254Z,2.50
2023-11-05T09:43:02.006Z,3.33
2023-11-05T09:45:32.577Z,4.60
2023-11-05T09:48:03.355Z,5.17
2023-11-05T09:50:32.533Z,2.50
2023-11-05T09:53:08.434Z,11.40
2023-11-05T09:55:40.489Z,5.17
2023-11-05T09:58:09.220Z,2.80
2023-11-05T10:00:38.544Z,4.47
2023-11-05T10:03:08.805Z,2.30
2023-11-05T10:05:38.590Z,4.73
2023-11-05T10:08:07.488Z,4.07
2023-11-05T10:10:38.308Z,3.83
2023-11-05T10:13:08.055Z,3.10
2023-11-05T10:15:37.599Z,3.90
2023-11-05T10:18:07.411Z,4.67
2023-11-05T10:20:50.287Z,5.87
2023-11-05T10:23:19.445Z,2.20
2023-11-05T10:25:51.431Z,15.90
2023-11-05T10:28:21.297Z,3.43
2023-11-05T10:30:51.592Z,2.77
2023-11-05T10:33:20.458Z,6.40
2023-11-05T10:35:48.810Z,3.70
2023-11-05T10:38:19.769Z,4.83
2023-11-05T10:40:50.598Z,2.80
2023-11-05T10:43:22.939Z,2.17
2023-11-05T10:45:53.930Z,3.00
2023-11-05T10:48:23.129Z,2.30
2023-11-05T10:50:54.480Z,4.90
2023-11-05T10:53:23.847Z,3.10
2023-11-05T10:55:55.493Z,2.77
2023-11-05T10:58:41.394Z,2.80
2023-11-05T11:01:16.579Z,2.93
2023-11-05T11:03:45.238Z,2.83
2023-11-05T11:06:15.932Z,1.97
2023-11-05T11:09:01.231Z,4.00
2023-11-05T11:11:31.178Z,4.00
2023-11-05T11:13:59.704Z,2.20
2023-11-05T11:16:30.845Z,3.30
2023-11-05T11:19:01.458Z,2.50
2023-11-05T11:21:29.882Z,2.60
2023-11-05T11:24:06.353Z,2.77
2023-11-05T11:26:40.180Z,2.17
2023-11-05T11:29:09.770Z,2.30
2023-11-05T11:31:38.489Z,2.60
2023-11-05T11:34:06.834Z,2.53
2023-11-05T11:36:35.116Z,2.77
2023-11-05T11:39:08.332Z,2.63
2023-11-05T11:41:38.218Z,3.13
2023-11-05T11:44:07.368Z,2.10
2023-11-05T11:46:37.164Z,2.37
2023-11-05T11:49:31.119Z,2.33
2023-11-05T11:51:59.618Z,2.23
2023-11-05T11:54:29.950Z,2.10
2023-11-05T11:57:00.443Z,2.00
2023-11-05T11:59:28.910Z,2.17
2023-11-05T12:02:00.763Z,1.90
2023-11-05T12:04:31.246Z,2.17
2023-11-05T12:07:05.436Z,2.70
2023-11-05T12:09:34.525Z,2.20
2023-11-05T12:12:05.064Z,2.33
2023-11-05T12:14:34.402Z,1.70
2023-11-05T12:17:07.065Z,2.67
2023-11-05T12:19:37.048Z,2.20
2023-11-05T12:22:07.855Z,2.80
2023-11-05T12:24:37.228Z,3.77
2023-11-05T12:27:07.486Z,5.17
2023-11-05T12:29:36.810Z,3.23
2023-11-05T12:32:08.812Z,1.93
2023-11-05T12:34:37.359Z,2.00
2023-11-05T12:37:06.144Z,2.20
2023-11-05T12:39:34.507Z,2.20
2023-11-05T12:42:02.841Z,2.13
2023-11-05T12:44:51.907Z,1.63
2023-11-05T12:47:20.619Z,1.70
2023-11-05T12:49:49.543Z,1.80
2023-11-05T12:52:18.254Z,2.10
2023-11-05T12:54:46.775Z,1.87
2023-11-05T13:02:04.742Z,2.03
2023-11-05T13:04:38.092Z,2.10
2023-11-05T13:07:08.578Z,1.83
2023-11-05T13:09:37.272Z,2.70
2023-11-05T13:12:06.771Z,1.83
2023-11-05T13:14:35.493Z,1.70
2023-11-05T13:17:05.758Z,1.90
2023-11-05T13:19:34.489Z,2.00
2023-11-05T13:22:02.897Z,1.63
2023-11-05T13:24:31.584Z,2.40
2023-11-05T13:26:59.933Z,2.23
2023-11-05T13:29:28.613Z,1.93
2023-11-05T13:31:57.376Z,1.93
2023-11-05T13:34:27.143Z,2.40
2023-11-05T13:36:57.460Z,1.83
2023-11-05T13:39:26.057Z,2.00
2023-11-05T13:41:55.294Z,1.80
2023-11-05T13:44:23.611Z,2.03
2023-11-05T13:46:52.755Z,2.10
2023-11-05T13:49:21.152Z,2.07
2023-11-05T13:51:50.904Z,1.90
2023-11-05T13:54:19.777Z,1.60
2023-11-05T13:56:49.457Z,1.50
2023-11-05T13:59:17.883Z,1.50
2023-11-05T14:01:46.304Z,1.47
2023-11-05T14:04:15.395Z,1.27
2023-11-05T14:06:44.961Z,1.30
2023-11-05T14:09:19.763Z,1.03
2023-11-05T14:11:53.230Z,1.13
2023-11-05T14:14:21.717Z,1.33
2023-11-05T14:16:50.136Z,1.20
2023-11-05T14:19:18.507Z,1.00
2023-11-05T14:21:46.872Z,1.50
2023-11-05T14:24:17.066Z,1.30
2023-11-05T14:26:45.844Z,1.20
2023-11-05T14:29:14.201Z,1.60
2023-11-05T14:31:44.496Z,1.37
2023-11-05T14:34:12.892Z,1.40
2023-11-05T14:36:41.299Z,1.43
2023-11-05T14:39:11.193Z,1.60
2023-11-05T14:41:40.993Z,1.40
2023-11-05T14:44:09.294Z,1.53
2023-11-05T14:46:37.724Z,1.60
2023-11-05T14:49:06.262Z,1.70
2023-11-05T14:51:34.718Z,1.80
2023-11-05T14:54:03.800Z,1.90
2023-11-05T14:56:34.905Z,1.60
2023-11-05T14:59:12.269Z,2.10
2023-11-05T15:01:40.892Z,2.03
2023-11-05T15:04:11.977Z,1.60
2023-11-05T15:06:47.508Z,2.17
2023-11-05T15:09:19.187Z,1.90
2023-11-05T15:11:50.977Z,1.90
2023-11-05T15:14:23.815Z,2.37
2023-11-05T15:16:58.942Z,1.93
2023-11-05T15:19:27.366Z,1.87
2023-11-05T15:21:55.710Z,1.80
2023-11-05T15:24:38.858Z,2.70
2023-11-05T15:27:07.468Z,1.80
2023-11-05T15:29:39.063Z,1.90
2023-11-05T15:32:08.349Z,1.47
2023-11-05T15:34:37.224Z,1.70
2023-11-05T15:37:14.516Z,1.60
2023-11-05T15:39:43.452Z,1.90
2023-11-05T15:42:11.893Z,1.83
2023-11-05T15:45:07.148Z,2.10
2023-11-05T15:47:35.612Z,2.17
2023-11-05T15:50:04.913Z,1.93
2023-11-05T15:52:33.461Z,2.33
2023-11-05T15:55:02.262Z,1.87
2023-11-05T15:57:30.527Z,1.63
2023-11-05T15:59:59.555Z,2.10
2023-11-05T16:02:29.489Z,1.60
2023-11-05T16:04:57.886Z,1.53
2023-11-05T16:07:26.340Z,1.60
2023-11-05T16:09:54.687Z,1.60
2023-11-05T16:12:23.026Z,2.00
2023-11-05T16:14:51.700Z,1.57
2023-11-05T16:17:19.984Z,1.60
2023-11-05T16:19:59.696Z,1.80
2023-11-05T16:22:28.217Z,1.60
2023-11-05T16:24:56.629Z,1.77
2023-11-05T16:27:24.900Z,1.30
2023-11-05T16:29:53.253Z,1.30
2023-11-05T16:32:21.954Z,1.50
2023-11-05T16:34:52.531Z,1.30
2023-11-05T16:37:20.902Z,1.67
2023-11-05T16:39:49.285Z,1.40
2023-11-05T16:42:17.696Z,1.50
2023-11-05T16:44:47.656Z,1.80
2023-11-05T16:47:17.711Z,2.30
2023-11-05T16:49:46.019Z,4.00
2023-11-05T16:52:16.643Z,2.77
2023-11-05T16:54:45.416Z,6.27
2023-11-05T16:57:13.714Z,3.90
2023-11-05T16:59:42.043Z,4.60
2023-11-05T17:02:11.789Z,6.63
2023-11-05T17:04:41.616Z,2.60
2023-11-05T17:07:10.284Z,3.90
2023-11-05T17:09:39.902Z,7.43
2023-11-05T17:12:09.050Z,2.87
2023-11-05T17:14:38.632Z,3.03
2023-11-05T17:17:09.534Z,5.63
2023-11-05T17:19:37.998Z,3.07
2023-11-05T17:22:06.618Z,3.53
2023-11-05T17:24:34.973Z,5.03
2023-11-05T17:27:06.632Z,3.03
2023-11-05T17:29:35.058Z,3.80
2023-11-05T17:32:03.755Z,3.17
2023-11-05T17:34:32.455Z,3.00
2023-11-05T17:37:00.878Z,3.70
2023-11-05T17:39:33.158Z,2.80
2023-11-05T17:42:01.797Z,4.60
2023-11-05T17:44:32.045Z,4.00
2023-11-05T17:47:00.617Z,4.53
2023-11-05T17:49:29.448Z,4.23
2023-11-05T17:51:58.250Z,5.90
2023-11-05T17:54:26.616Z,6.03
2023-11-05T17:56:55.010Z,7.40
2023-11-05T17:59:25.677Z,9.93
2023-11-05T18:01:56.367Z,6.20
2023-11-05T18:04:26.678Z,6.30
2023-11-05T18:06:55.131Z,5.40
2023-11-05T18:09:23.688Z,3.87
2023-11-05T18:11:53.705Z,5.20
2023-11-05T18:14:22.227Z,4.30
2023-11-05T18:16:50.791Z,7.80
2023-11-05T18:19:20.597Z,6.83
2023-11-05T18:21:49.235Z,4.40
2023-11-05T18:24:17.734Z,4.00
2023-11-05T18:26:46.100Z,6.17
2023-11-05T18:29:14.555Z,6.33
2023-11-05T18:31:42.882Z,7.20
2023-11-05T18:34:11.293Z,7.87
2023-11-05T18:36:41.111Z,10.03
2023-11-05T18:39:10.666Z,9.17
2023-11-05T18:41:42.740Z,10.23
2023-11-05T18:44:11.519Z,8.10
2023-11-05T18:46:41.624Z,7.90
2023-11-05T18:49:10.402Z,8.83
2023-11-05T18:51:40.088Z,12.77
2023-11-05T18:54:11.359Z,13.23
2023-11-05T18:56:39.904Z,12.10
2023-11-05T18:59:09.419Z,12.80
2023-11-05T19:01:38.351Z,15.53
2023-11-05T19:04:06.818Z,16.83
2023-11-05T19:06:35.254Z,14.27
2023-11-05T19:09:06.530Z,10.90
2023-11-05T19:11:35.432Z,9.40
2023-11-05T19:14:10.991Z,11.07
2023-11-05T19:16:52.999Z,11.10
2023-11-05T19:19:21.449Z,11.90
2023-11-05T19:21:49.761Z,14.80
2023-11-05T19:24:19.494Z,11.90
2023-11-05T19:26:48.002Z,10.70
2023-11-05T19:29:16.495Z,13.03
2023-11-05T19:31:44.980Z,13.33
2023-11-05T19:34:13.276Z,12.77
2023-11-05T19:36:44.074Z,11.53
2023-11-05T19:39:12.371Z,10.20
2023-11-05T19:41:42.151Z,7.70
2023-11-05T19:44:10.924Z,7.27
2023-11-05T19:46:39.368Z,6.10
2023-11-05T19:49:08.372Z,8.70
2023-11-05T19:51:36.990Z,7.17
2023-11-05T19:54:13.327Z,6.37
2023-11-05T19:56:44.328Z,5.93
2023-11-05T19:59:12.699Z,5.27
2023-11-05T20:01:46.543Z,5.77
2023-11-05T20:04:15.336Z,5.10
2023-11-05T20:06:43.901Z,4.00
2023-11-05T20:09:12.327Z,3.87
2023-11-05T20:11:40.925Z,4.07
2023-11-05T20:14:12.158Z,3.83
2023-11-05T20:16:40.640Z,4.40
2023-11-05T20:19:09.737Z,8.03
2023-11-05T20:21:40.549Z,8.67
2023-11-05T20:24:09.334Z,6.90
2023-11-05T20:26:37.658Z,6.60
2023-11-05T20:29:10.439Z,5.23
2023-11-05T20:31:41.008Z,4.77
2023-11-05T20:34:09.855Z,4.53
2023-11-05T20:36:41.260Z,5.57
2023-11-05T20:39:11.037Z,4.73
2023-11-05T20:41:39.430Z,5.13
2023-11-05T20:44:07.932Z,4.83
2023-11-05T20:46:37.527Z,4.33
2023-11-05T20:49:07.288Z,5.47
2023-11-05T20:51:36.256Z,5.00
2023-11-05T20:54:04.708Z,4.83
2023-11-05T20:56:33.132Z,4.50
2023-11-05T20:59:01.521Z,4.30
2023-11-05T21:01:29.826Z,5.50
2023-11-05T21:03:58.257Z,4.53
2023-11-05T21:06:28.216Z,4.70
2023-11-05T21:08:56.877Z,4.63
2023-11-05T21:11:25.279Z,4.50
2023-11-05T21:13:55.122Z,4.23
2023-11-05T21:16:23.571Z,4.73
2023-11-05T21:18:52.525Z,4.27
2023-11-05T21:21:20.933Z,4.87
2023-11-05T21:23:50.641Z,4.30
2023-11-05T21:26:19.109Z,4.87
2023-11-05T21:28:47.780Z,4.60
2023-11-05T21:31:16.843Z,4.57
2023-11-05T21:33:45.304Z,4.30
2023-11-05T21:36:16.643Z,4.00
2023-11-05T21:38:45.051Z,4.63
2023-11-05T21:41:20.958Z,4.80
2023-11-05T21:43:49.466Z,4.63
2023-11-05T21:46:17.780Z,5.77
2023-11-05T21:48:46.389Z,6.27
2023-11-05T21:51:14.809Z,7.17
2023-11-05T21:53:43.088Z,5.30
2023-11-05T21:56:12.576Z,4.73
2023-11-05T21:58:42.348Z,5.23
2023-11-05T22:01:10.861Z,4.90
2023-11-05T22:03:39.890Z,4.90
2023-11-05T22:06:08.526Z,5.20
2023-11-05T22:08:37.515Z,4.50
2023-11-05T22:11:06.844Z,4.57
2023-11-05T22:13:35.192Z,4.30
2023-11-05T22:16:05.474Z,4.90
2023-11-05T22:18:34.975Z,4.80
2023-11-05T22:21:06.870Z,3.80
2023-11-05T22:23:35.356Z,4.43
2023-11-05T22:26:06.178Z,5.50
2023-11-05T22:28:34.707Z,5.10
2023-11-05T22:31:04.854Z,6.00
2023-11-05T22:33:33.289Z,5.20
2023-11-05T22:36:01.683Z,4.70
2023-11-05T22:38:30.011Z,4.20
2023-11-05T22:40:58.354Z,4.63
2023-11-05T22:43:26.892Z,4.40
2023-11-05T22:45:55.483Z,4.20
2023-11-05T22:48:25.344Z,3.57
2023-11-05T22:50:53.704Z,4.00
2023-11-05T22:53:22.090Z,4.17
2023-11-05T22:55:50.481Z,4.33
2023-11-05T22:58:18.853Z,3.70
2023-11-05T23:00:52.537Z,3.97
2023-11-05T23:03:21.986Z,4.10
2023-11-05T23:05:54.595Z,4.37
2023-11-05T23:08:25.104Z,3.93
2023-11-05T23:10:54.194Z,3.80
2023-11-05T23:13:22.807Z,4.00
2023-11-05T23:15:51.064Z,4.53
2023-11-05T23:18:19.716Z,4.00
2023-11-05T23:20:48.170Z,4.40
2023-11-05T23:23:17.908Z,3.70
2023-11-05T23:25:46.297Z,4.70
2023-11-05T23:28:16.025Z,4.23
2023-11-05T23:30:44.585Z,4.67
2023-11-05T23:33:12.820Z,3.70
2023-11-05T23:35:41.184Z,4.03
2023-11-05T23:38:10.112Z,4.80
2023-11-05T23:40:41.068Z,4.50
2023-11-05T23:43:10.083Z,4.33
2023-11-05T23:45:38.656Z,5.30
2023-11-05T23:48:06.400Z,4.97
2023-11-05T23:50:34.829Z,4.83
2023-11-05T23:53:03.227Z,4.60
2023-11-05T23:55:31.610Z,4.50
2023-11-05T23:58:01.501Z,4.80
